createdAt,value
2022-09-20T00:01:23.382Z,11.40
2022-09-20T00:03:54.686Z,11.07
2022-09-20T00:06:26.093Z,12.63
2022-09-20T00:08:53.673Z,12.95
2022-09-20T00:11:25.680Z,11.68
2022-09-20T00:13:56.163Z,11.05
2022-09-20T00:16:35.417Z,12.10
2022-09-20T00:19:04.396Z,9.25
2022-09-20T00:21:33.479Z,8.88
2022-09-20T00:24:01.730Z,8.82
2022-09-20T00:26:29.424Z,8.30
2022-09-20T00:28:58.166Z,9.98
2022-09-20T00:31:25.011Z,9.30
2022-09-20T00:34:13.761Z,10.02
2022-09-20T00:36:41.191Z,9.10
2022-09-20T00:39:10.760Z,10.88
2022-09-20T00:41:37.833Z,10.30
2022-09-20T00:44:40.992Z,10.25
2022-09-20T00:47:30.608Z,12.73
2022-09-20T00:50:25.982Z,13.70
2022-09-20T00:53:00.835Z,12.95
2022-09-20T00:55:29.092Z,13.02
2022-09-20T00:57:56.190Z,11.73
2022-09-20T01:00:23.715Z,8.50
2022-09-20T01:02:57.594Z,9.45
2022-09-20T01:05:25.425Z,9.20
2022-09-20T01:07:52.788Z,9.55
2022-09-20T01:10:19.596Z,10.45
2022-09-20T01:12:48.264Z,10.40
2022-09-20T01:15:15.805Z,10.88
2022-09-20T01:17:47.118Z,10.43
2022-09-20T01:20:28.579Z,9.32
2022-09-20T01:23:14.184Z,9.00
2022-09-20T01:25:59.767Z,9.13
2022-09-20T01:28:27.578Z,9.77
2022-09-20T01:31:06.381Z,9.75
2022-09-20T01:33:46.969Z,9.80
2022-09-20T01:36:24.903Z,9.27
2022-09-20T01:39:10.398Z,9.55
2022-09-20T01:41:56.536Z,8.40
2022-09-20T01:44:35.917Z,8.48
2022-09-20T01:47:11.388Z,9.13
2022-09-20T01:49:57.348Z,9.27
2022-09-20T01:52:36.184Z,8.48
2022-09-20T01:55:50.588Z,8.35
2022-09-20T01:58:42.130Z,8.38
2022-09-20T02:01:27.164Z,8.32
2022-09-20T02:04:30.708Z,8.32
2022-09-20T02:07:25.848Z,8.38
2022-09-20T02:09:56.934Z,9.25
2022-09-20T02:12:52.112Z,9.23
2022-09-20T02:15:52.525Z,8.40
2022-09-20T02:18:44.096Z,7.50
2022-09-20T02:21:42.445Z,8.75
2022-09-20T02:24:12.286Z,8.82
2022-09-20T02:26:48.443Z,8.23
2022-09-20T02:29:33.763Z,9.27
2022-09-20T02:32:12.709Z,11.65
2022-09-20T02:34:53.831Z,10.68
2022-09-20T02:37:59.291Z,11.40
2022-09-20T02:41:05.320Z,10.63
2022-09-20T02:44:09.584Z,9.77
2022-09-20T02:47:21.033Z,9.82
2022-09-20T02:50:19.978Z,11.82
2022-09-20T02:53:08.536Z,11.45
2022-09-20T02:55:52.033Z,11.65
2022-09-20T02:58:30.867Z,11.50
2022-09-20T03:01:13.232Z,12.35
2022-09-20T03:04:10.375Z,12.10
2022-09-20T03:07:08.768Z,11.13
2022-09-20T03:09:47.846Z,9.10
2022-09-20T03:12:17.547Z,10.77
2022-09-20T03:15:11.871Z,11.95
2022-09-20T03:18:15.931Z,12.23
2022-09-20T03:20:48.586Z,11.82
2022-09-20T03:23:35.858Z,11.00
2022-09-20T03:26:29.957Z,13.70
2022-09-20T03:29:04.175Z,14.25
2022-09-20T03:31:37.114Z,13.30
2022-09-20T03:34:07.511Z,13.70
2022-09-20T03:36:49.456Z,12.50
2022-09-20T03:39:36.567Z,12.43
2022-09-20T03:42:24.628Z,12.07
2022-09-20T03:45:06.606Z,11.85
2022-09-20T03:47:52.145Z,11.77
2022-09-20T03:51:00.799Z,11.40
2022-09-20T03:53:46.388Z,11.90
2022-09-20T03:56:55.828Z,11.30
2022-09-20T03:59:31.787Z,10.80
2022-09-20T04:02:21.888Z,12.20
2022-09-20T04:04:56.959Z,10.83
2022-09-20T04:07:47.024Z,8.63
2022-09-20T04:10:25.763Z,10.60
2022-09-20T04:13:17.312Z,10.33
2022-09-20T04:15:44.400Z,11.17
2022-09-20T04:18:19.868Z,11.03
2022-09-20T04:20:52.504Z,10.40
2022-09-20T04:23:53.507Z,11.47
2022-09-20T04:26:26.538Z,11.47
2022-09-20T04:29:35.448Z,10.93
2022-09-20T04:32:22.010Z,9.60
2022-09-20T04:35:23.112Z,9.93
2022-09-20T04:37:52.029Z,10.40
2022-09-20T04:40:41.057Z,11.27
2022-09-20T04:43:37.357Z,10.57
2022-09-20T04:46:23.129Z,8.60
2022-09-20T04:49:02.595Z,9.73
2022-09-20T04:51:44.397Z,9.90
2022-09-20T04:54:42.186Z,10.27
2022-09-20T04:57:27.784Z,10.37
2022-09-20T05:00:12.877Z,9.77
2022-09-20T05:02:42.849Z,9.93
2022-09-20T05:05:41.208Z,9.50
2022-09-20T05:08:17.233Z,9.13
2022-09-20T05:11:19.563Z,8.23
2022-09-20T05:14:08.222Z,8.00
2022-09-20T05:16:58.310Z,8.43
2022-09-20T05:19:55.745Z,7.40
2022-09-20T05:23:07.831Z,8.00
2022-09-20T05:25:46.483Z,8.30
2022-09-20T05:28:29.329Z,7.13
2022-09-20T05:31:01.471Z,7.57
2022-09-20T05:33:46.741Z,6.90
2022-09-20T05:36:34.572Z,7.60
2022-09-20T05:39:24.762Z,7.40
2022-09-20T05:42:07.217Z,5.53
2022-09-20T05:45:04.582Z,6.20
2022-09-20T05:48:02.289Z,6.03
2022-09-20T05:50:38.088Z,6.17
2022-09-20T05:53:26.519Z,6.57
2022-09-20T05:56:19.117Z,6.93
2022-09-20T05:59:09.725Z,6.13
2022-09-20T06:01:51.011Z,6.40
2022-09-20T06:04:26.933Z,6.23
2022-09-20T06:07:20.062Z,6.10
2022-09-20T06:10:29.133Z,5.57
2022-09-20T06:13:23.325Z,6.27
2022-09-20T06:16:02.690Z,6.30
2022-09-20T06:19:05.065Z,5.83
2022-09-20T06:22:01.923Z,5.50
2022-09-20T06:24:56.332Z,5.53
2022-09-20T06:27:32.453Z,4.43
2022-09-20T06:30:05.829Z,4.80
2022-09-20T06:32:34.733Z,4.73
2022-09-20T06:35:03.062Z,4.30
2022-09-20T06:38:08.206Z,5.72
2022-09-20T06:41:00.137Z,4.90
2022-09-20T06:43:27.861Z,4.60
2022-09-20T06:45:54.719Z,4.18
2022-09-20T06:48:21.650Z,4.80
2022-09-20T06:50:49.894Z,4.68
2022-09-20T06:53:19.098Z,3.65
2022-09-20T06:55:47.020Z,4.07
2022-09-20T06:58:13.873Z,4.13
2022-09-20T07:00:41.078Z,4.53
2022-09-20T07:03:08.483Z,4.63
2022-09-20T07:05:36.335Z,5.15
2022-09-20T07:08:03.456Z,4.30
2022-09-20T07:10:30.922Z,3.85
2022-09-20T07:12:59.466Z,3.90
2022-09-20T07:15:28.275Z,3.30
2022-09-20T07:17:55.730Z,2.95
2022-09-20T07:20:23.291Z,3.40
2022-09-20T07:22:50.986Z,3.00
2022-09-20T07:25:18.289Z,3.00
2022-09-20T07:27:46.490Z,3.17
2022-09-20T07:30:14.819Z,3.70
2022-09-20T07:32:42.020Z,3.15
2022-09-20T07:35:10.154Z,3.00
2022-09-20T07:37:37.609Z,3.17
2022-09-20T07:40:05.732Z,3.10
2022-09-20T07:42:33.218Z,3.40
2022-09-20T07:45:02.173Z,3.05
2022-09-20T07:47:35.287Z,2.63
2022-09-20T07:50:02.877Z,2.85
2022-09-20T07:52:30.105Z,2.60
2022-09-20T07:54:56.982Z,3.63
2022-09-20T07:57:23.929Z,3.22
2022-09-20T07:59:50.740Z,3.10
2022-09-20T08:02:17.759Z,3.25
2022-09-20T08:04:44.636Z,3.00
2022-09-20T08:07:12.724Z,2.83
2022-09-20T08:09:39.587Z,2.40
2022-09-20T08:14:55.581Z,2.40
2022-09-20T08:17:22.725Z,2.97
2022-09-20T08:19:49.898Z,2.90
2022-09-20T08:22:16.725Z,2.83
2022-09-20T08:24:44.196Z,3.53
2022-09-20T08:27:11.096Z,3.53
2022-09-20T08:29:38.583Z,3.15
2022-09-20T08:32:05.469Z,3.50
2022-09-20T08:34:32.319Z,3.90
2022-09-20T08:36:59.527Z,4.10
2022-09-20T08:42:33.351Z,4.45
2022-09-20T08:45:22.190Z,4.05
2022-09-20T08:47:58.929Z,3.22
2022-09-20T08:50:26.910Z,3.40
2022-09-20T08:53:00.647Z,3.13
2022-09-20T08:55:36.453Z,3.10
2022-09-20T08:58:08.220Z,3.10
2022-09-20T09:00:37.081Z,3.03
2022-09-20T09:03:07.398Z,3.30
2022-09-20T09:05:37.619Z,2.90
2022-09-20T09:08:31.032Z,3.13
2022-09-20T09:11:02.496Z,2.78
2022-09-20T09:13:39.046Z,2.80
2022-09-20T09:16:22.505Z,3.20
2022-09-20T09:18:53.162Z,3.67
2022-09-20T09:21:25.878Z,3.90
2022-09-20T09:24:13.814Z,3.65
2022-09-20T09:26:43.396Z,3.92
2022-09-20T09:29:10.256Z,3.58
2022-09-20T09:31:39.652Z,4.28
2022-09-20T09:34:29.984Z,3.42
2022-09-20T09:36:57.812Z,3.42
2022-09-20T09:39:31.768Z,3.10
2022-09-20T09:42:01.207Z,3.40
2022-09-20T09:44:33.233Z,3.50
2022-09-20T09:47:00.544Z,3.85
2022-09-20T09:49:36.260Z,3.30
2022-09-20T09:52:15.402Z,2.95
2022-09-20T09:54:46.857Z,3.40
2022-09-20T09:57:25.732Z,3.13
2022-09-20T10:00:04.150Z,3.00
2022-09-20T10:02:48.151Z,2.80
2022-09-20T10:05:27.129Z,2.55
2022-09-20T10:08:16.802Z,3.10
2022-09-20T10:11:07.752Z,2.60
2022-09-20T10:13:53.112Z,3.65
2022-09-20T10:16:21.010Z,3.20
2022-09-20T10:19:03.283Z,3.00
2022-09-20T10:21:56.232Z,3.35
2022-09-20T10:24:34.835Z,4.00
2022-09-20T10:27:26.132Z,4.38
2022-09-20T10:30:03.976Z,4.57
2022-09-20T10:32:31.564Z,5.22
2022-09-20T10:35:19.727Z,5.30
2022-09-20T10:38:08.107Z,5.50
2022-09-20T10:41:02.490Z,5.25
2022-09-20T10:43:51.097Z,6.10
2022-09-20T10:46:49.973Z,5.97
2022-09-20T10:49:36.685Z,6.28
2022-09-20T10:52:26.607Z,5.45
2022-09-20T10:55:06.344Z,5.43
2022-09-20T10:57:48.641Z,4.93
2022-09-20T11:00:25.000Z,6.13
2022-09-20T11:03:12.146Z,5.20
2022-09-20T11:05:53.975Z,6.32
2022-09-20T11:08:27.034Z,6.88
2022-09-20T11:10:58.661Z,7.22
2022-09-20T11:14:03.384Z,6.20
2022-09-20T11:16:43.320Z,6.53
2022-09-20T11:19:19.315Z,6.60
2022-09-20T11:22:06.115Z,6.50
2022-09-20T11:24:48.215Z,6.32
2022-09-20T11:27:29.687Z,6.10
2022-09-20T11:30:20.830Z,5.97
2022-09-20T11:32:58.008Z,5.57
2022-09-20T11:35:36.833Z,8.23
2022-09-20T11:38:26.709Z,6.10
2022-09-20T11:41:15.706Z,6.95
2022-09-20T11:43:44.501Z,7.13
2022-09-20T11:46:18.700Z,6.47
2022-09-20T11:48:52.896Z,7.60
2022-09-20T11:51:34.938Z,7.40
2022-09-20T11:54:04.887Z,7.60
2022-09-20T11:56:34.497Z,6.57
2022-09-20T11:59:03.846Z,6.65
2022-09-20T12:01:40.623Z,7.13
2022-09-20T12:07:09.717Z,7.10
2022-09-20T12:09:42.826Z,7.30
2022-09-20T12:12:28.327Z,6.82
2022-09-20T12:14:57.382Z,7.28
2022-09-20T12:17:45.903Z,6.53
2022-09-20T12:20:34.704Z,7.10
2022-09-20T12:23:38.802Z,6.82
2022-09-20T12:26:20.349Z,6.70
2022-09-20T12:28:49.940Z,6.10
2022-09-20T12:31:29.146Z,6.20
2022-09-20T12:34:10.920Z,7.57
2022-09-20T12:36:52.189Z,7.70
2022-09-20T12:39:30.040Z,8.43
2022-09-20T12:42:12.439Z,8.50
2022-09-20T12:44:51.254Z,8.23
2022-09-20T12:47:29.016Z,7.63
2022-09-20T12:50:19.841Z,7.93
2022-09-20T12:52:59.052Z,8.30
2022-09-20T12:55:29.884Z,8.63
2022-09-20T12:58:02.460Z,7.82
2022-09-20T13:00:38.956Z,8.00
2022-09-20T13:03:23.841Z,8.50
2022-09-20T13:06:17.480Z,8.13
2022-09-20T13:08:52.459Z,9.07
2022-09-20T13:11:27.452Z,8.93
2022-09-20T13:14:07.000Z,8.60
2022-09-20T13:16:39.556Z,8.55
2022-09-20T13:19:15.235Z,8.77
2022-09-20T13:21:57.661Z,8.43
2022-09-20T13:24:26.874Z,8.38
2022-09-20T13:26:56.271Z,8.98
2022-09-20T13:29:33.178Z,8.35
2022-09-20T13:32:31.335Z,8.45
2022-09-20T13:35:08.600Z,7.28
2022-09-20T13:37:37.298Z,7.90
2022-09-20T13:40:06.792Z,8.13
2022-09-20T13:42:36.899Z,8.40
2022-09-20T13:45:04.598Z,7.70
2022-09-20T13:47:32.432Z,8.30
2022-09-20T13:50:15.250Z,7.47
2022-09-20T13:52:48.369Z,7.40
2022-09-20T13:55:30.022Z,8.13
2022-09-20T13:58:02.944Z,8.05
2022-09-20T14:00:32.167Z,7.35
2022-09-20T14:02:59.373Z,7.40
2022-09-20T14:05:30.031Z,7.53
2022-09-20T14:07:59.367Z,8.27
2022-09-20T14:10:42.966Z,7.72
2022-09-20T14:13:15.592Z,8.20
2022-09-20T14:15:46.535Z,8.07
2022-09-20T14:18:18.017Z,7.68
2022-09-20T14:20:45.920Z,7.47
2022-09-20T14:23:27.717Z,6.95
2022-09-20T14:26:16.450Z,6.50
2022-09-20T14:28:44.403Z,7.07
2022-09-20T14:31:34.791Z,7.28
2022-09-20T14:34:04.161Z,7.10
2022-09-20T14:36:31.319Z,7.60
2022-09-20T14:39:02.901Z,7.10
2022-09-20T14:41:36.324Z,8.07
2022-09-20T14:44:05.638Z,7.90
2022-09-20T14:46:36.289Z,7.38
2022-09-20T14:49:25.483Z,7.90
2022-09-20T14:51:53.591Z,7.47
2022-09-20T14:54:32.324Z,6.43
2022-09-20T14:56:59.175Z,7.35
2022-09-20T14:59:37.494Z,7.10
2022-09-20T15:02:13.759Z,6.50
2022-09-20T15:04:51.398Z,6.55
2022-09-20T15:07:18.235Z,6.60
2022-09-20T15:09:45.567Z,6.30
2022-09-20T15:12:16.007Z,6.35
2022-09-20T15:14:43.214Z,6.28
2022-09-20T15:17:14.925Z,6.13
2022-09-20T15:19:41.995Z,6.50
2022-09-20T15:22:12.445Z,6.18
2022-09-20T15:24:39.997Z,6.20
2022-09-20T15:27:07.224Z,6.70
2022-09-20T15:29:34.195Z,6.38
2022-09-20T15:32:01.159Z,6.35
2022-09-20T15:34:28.144Z,6.63
2022-09-20T15:36:55.126Z,6.68
2022-09-20T15:39:24.828Z,7.47
2022-09-20T15:41:53.215Z,6.80
2022-09-20T15:44:20.726Z,7.65
2022-09-20T15:46:48.949Z,8.10
2022-09-20T15:49:15.906Z,7.30
2022-09-20T15:51:42.836Z,7.18
2022-09-20T15:54:12.821Z,8.23
2022-09-20T15:56:42.514Z,7.97
2022-09-20T15:59:11.690Z,8.88
2022-09-20T16:01:40.941Z,8.05
2022-09-20T16:04:08.687Z,8.27
2022-09-20T16:06:36.647Z,8.40
2022-09-20T16:09:04.806Z,8.30
2022-09-20T16:11:32.352Z,7.80
2022-09-20T16:14:00.799Z,8.88
2022-09-20T16:16:29.657Z,9.05
2022-09-20T16:19:15.063Z,7.80
2022-09-20T16:21:44.451Z,7.45
2022-09-20T16:24:14.008Z,8.50
2022-09-20T16:26:41.211Z,9.30
2022-09-20T16:29:08.413Z,9.45
2022-09-20T16:31:42.494Z,9.10
2022-09-20T16:34:19.278Z,9.38
2022-09-20T16:36:51.282Z,9.18
2022-09-20T16:39:19.782Z,9.90
2022-09-20T16:41:48.806Z,9.82
2022-09-20T16:44:16.278Z,10.65
2022-09-20T16:46:44.590Z,10.85
2022-09-20T16:49:13.465Z,9.85
2022-09-20T16:51:42.915Z,9.88
2022-09-20T16:54:13.028Z,11.65
2022-09-20T16:56:43.517Z,13.40
2022-09-20T16:59:10.877Z,15.02
2022-09-20T17:01:39.754Z,14.23
2022-09-20T17:04:08.344Z,13.85
2022-09-20T17:06:38.280Z,15.10
2022-09-20T17:09:07.008Z,15.90
2022-09-20T17:11:37.471Z,15.80
2022-09-20T17:14:05.531Z,14.52
2022-09-20T17:16:35.402Z,15.05
2022-09-20T17:19:11.151Z,15.60
2022-09-20T17:21:45.165Z,16.75
2022-09-20T17:24:13.817Z,15.60
2022-09-20T17:26:44.774Z,16.58
2022-09-20T17:29:16.958Z,15.73
2022-09-20T17:31:51.470Z,16.42
2022-09-20T17:34:21.922Z,17.20
2022-09-20T17:36:50.551Z,17.98
2022-09-20T17:39:18.425Z,18.05
2022-09-20T17:41:47.496Z,18.55
2022-09-20T17:44:15.782Z,17.60
2022-09-20T17:46:44.859Z,17.08
2022-09-20T17:49:18.198Z,16.85
2022-09-20T17:51:50.842Z,16.20
2022-09-20T17:54:19.192Z,16.77
2022-09-20T17:56:51.719Z,15.45
2022-09-20T17:59:20.367Z,15.38
2022-09-20T18:01:49.865Z,14.88
2022-09-20T18:04:17.057Z,13.82
2022-09-20T18:06:50.827Z,14.95
2022-09-20T18:09:22.199Z,15.90
2022-09-20T18:11:52.040Z,15.18
2022-09-20T18:14:23.186Z,11.40
2022-09-20T18:16:55.967Z,13.38
2022-09-20T18:19:23.065Z,14.35
2022-09-20T18:21:50.670Z,14.10
2022-09-20T18:24:17.583Z,14.20
2022-09-20T18:26:44.651Z,12.88
2022-09-20T18:29:18.012Z,12.10
2022-09-20T18:31:49.799Z,12.75
2022-09-20T18:34:24.573Z,14.30
2022-09-20T18:36:56.783Z,12.32
2022-09-20T18:39:28.979Z,12.65
2022-09-20T18:41:56.022Z,12.38
2022-09-20T18:44:23.683Z,11.55
2022-09-20T18:46:55.179Z,12.38
2022-09-20T18:49:22.498Z,12.82
2022-09-20T18:51:50.003Z,12.98
2022-09-20T18:54:17.719Z,12.45
2022-09-20T18:56:46.465Z,11.40
2022-09-20T18:59:18.319Z,13.00
2022-09-20T19:01:54.364Z,12.63
2022-09-20T19:04:43.637Z,13.02
2022-09-20T19:07:37.748Z,11.48
2022-09-20T19:10:27.042Z,12.25
2022-09-20T19:13:31.258Z,12.48
2022-09-20T19:16:19.348Z,12.65
2022-09-20T19:19:26.754Z,11.10
2022-09-20T19:22:02.597Z,11.90
2022-09-20T19:25:02.343Z,10.73
2022-09-20T19:27:29.596Z,11.70
2022-09-20T19:29:56.720Z,12.18
2022-09-20T19:32:26.240Z,10.85
2022-09-20T19:35:01.808Z,12.10
2022-09-20T19:37:52.871Z,13.15
2022-09-20T19:40:41.078Z,12.20
2022-09-20T19:43:23.694Z,12.00
2022-09-20T19:46:10.120Z,13.25
2022-09-20T19:48:47.127Z,12.07
2022-09-20T19:51:15.181Z,11.20
2022-09-20T19:53:42.377Z,12.55
2022-09-20T19:56:29.589Z,12.27
2022-09-20T19:58:56.744Z,12.15
2022-09-20T20:01:25.063Z,11.70
2022-09-20T20:03:53.595Z,12.00
2022-09-20T20:06:48.877Z,13.18
2022-09-20T20:09:15.674Z,13.05
2022-09-20T20:11:48.541Z,11.93
2022-09-20T20:14:24.985Z,12.75
2022-09-20T20:17:25.970Z,12.27
2022-09-20T20:20:06.354Z,11.60
2022-09-20T20:22:40.977Z,12.55
2022-09-20T20:25:26.321Z,10.45
2022-09-20T20:27:53.167Z,11.82
2022-09-20T20:30:20.314Z,12.73
2022-09-20T20:32:47.607Z,14.35
2022-09-20T20:35:15.055Z,15.50
2022-09-20T20:37:42.668Z,14.15
2022-09-20T20:40:14.877Z,13.70
2022-09-20T20:42:42.838Z,14.88
2022-09-20T20:45:10.438Z,13.85
2022-09-20T20:47:37.993Z,14.60
2022-09-20T20:50:06.019Z,12.25
2022-09-20T20:52:32.858Z,13.35
2022-09-20T20:55:00.195Z,15.13
2022-09-20T20:57:28.056Z,14.00
2022-09-20T20:59:54.856Z,13.45
2022-09-20T21:02:21.801Z,13.50
2022-09-20T21:04:48.657Z,13.52
2022-09-20T21:07:16.617Z,12.77
2022-09-20T21:09:43.470Z,12.73
2022-09-20T21:12:10.430Z,12.05
2022-09-20T21:14:37.270Z,12.68
2022-09-20T21:17:04.543Z,13.30
2022-09-20T21:19:31.315Z,12.57
2022-09-20T21:21:58.148Z,13.52
2022-09-20T21:24:24.944Z,13.85
2022-09-20T21:26:52.687Z,13.00
2022-09-20T21:29:20.372Z,12.43
2022-09-20T21:31:47.734Z,13.88
2022-09-20T21:34:16.103Z,14.18
2022-09-20T21:36:44.636Z,14.18
2022-09-20T21:39:12.474Z,14.40
2022-09-20T21:41:40.184Z,15.65
2022-09-20T21:44:09.813Z,14.23
2022-09-20T21:46:40.212Z,14.18
2022-09-20T21:49:09.527Z,13.20
2022-09-20T21:51:37.289Z,14.23
2022-09-20T21:54:05.785Z,12.52
2022-09-20T21:56:34.840Z,12.63
2022-09-20T21:59:03.987Z,12.50
2022-09-20T22:01:36.977Z,12.52
2022-09-20T22:04:09.735Z,12.45
2022-09-20T22:06:38.681Z,13.23
2022-09-20T22:09:09.276Z,12.15
2022-09-20T22:11:40.861Z,12.40
2022-09-20T22:14:09.159Z,12.65
2022-09-20T22:16:40.869Z,13.30
2022-09-20T22:19:10.763Z,14.15
2022-09-20T22:21:39.997Z,15.07
2022-09-20T22:24:08.918Z,15.98
2022-09-20T22:26:44.874Z,12.95
2022-09-20T22:29:12.438Z,14.65
2022-09-20T22:31:45.023Z,15.10
2022-09-20T22:34:18.344Z,14.80
2022-09-20T22:36:45.402Z,14.85
2022-09-20T22:39:13.494Z,14.45
2022-09-20T22:41:41.544Z,14.00
2022-09-20T22:44:09.310Z,14.35
2022-09-20T22:46:37.172Z,14.00
2022-09-20T22:49:05.965Z,14.48
2022-09-20T22:51:33.593Z,15.20
2022-09-20T22:54:04.488Z,14.05
2022-09-20T22:56:32.006Z,15.07
2022-09-20T22:59:03.264Z,14.53
2022-09-20T23:01:35.953Z,14.07
2022-09-20T23:04:08.606Z,14.67
2022-09-20T23:06:57.144Z,14.27
2022-09-20T23:09:26.382Z,13.90
2022-09-20T23:11:53.438Z,14.65
2022-09-20T23:14:22.195Z,15.00
2022-09-20T23:16:49.666Z,14.75
2022-09-20T23:19:17.628Z,14.50
2022-09-20T23:21:45.194Z,14.32
2022-09-20T23:24:14.468Z,13.98
2022-09-20T23:26:42.503Z,14.00
2022-09-20T23:29:12.084Z,13.87
2022-09-20T23:31:45.264Z,13.10
2022-09-20T23:34:14.421Z,13.32
2022-09-20T23:36:42.624Z,12.40
2022-09-20T23:39:11.781Z,14.47
2022-09-20T23:41:39.545Z,13.77
2022-09-20T23:44:06.775Z,14.93
2022-09-20T23:46:34.286Z,14.50
2022-09-20T23:49:01.932Z,13.60
2022-09-20T23:51:30.765Z,12.40
2022-09-20T23:53:57.825Z,12.27
2022-09-20T23:56:25.077Z,13.60
2022-09-20T23:58:52.264Z,12.87
